createdAt,value
2022-11-17T00:00:42.679Z,7.20
2022-11-17T00:03:15.083Z,8.20
2022-11-17T00:05:42.151Z,7.65
2022-11-17T00:08:09.446Z,8.25
2022-11-17T00:10:36.386Z,8.77
2022-11-17T00:13:22.023Z,8.57
2022-11-17T00:15:48.799Z,8.60
2022-11-17T00:18:34.109Z,8.80
2022-11-17T00:21:19.217Z,9.00
2022-11-17T00:23:50.096Z,9.43
2022-11-17T00:26:22.457Z,10.73
2022-11-17T00:28:57.488Z,10.15
2022-11-17T00:31:43.746Z,10.97
2022-11-17T00:34:22.987Z,10.32
2022-11-17T00:36:51.883Z,10.20
2022-11-17T00:39:22.271Z,11.60
2022-11-17T00:41:49.312Z,10.65
2022-11-17T00:44:16.194Z,11.13
2022-11-17T00:46:43.295Z,11.75
2022-11-17T00:49:11.334Z,10.90
2022-11-17T00:51:38.630Z,10.93
2022-11-17T00:54:06.728Z,11.48
2022-11-17T00:56:34.084Z,11.25
2022-11-17T00:59:00.972Z,12.02
2022-11-17T01:01:27.954Z,12.80
2022-11-17T01:04:03.123Z,11.63
2022-11-17T01:06:41.718Z,11.82
2022-11-17T01:09:16.319Z,13.02
2022-11-17T01:11:43.860Z,12.13
2022-11-17T01:14:14.469Z,13.02
2022-11-17T01:16:41.541Z,13.32
2022-11-17T01:19:08.827Z,13.02
2022-11-17T01:21:35.603Z,12.88
2022-11-17T01:24:02.572Z,12.90
2022-11-17T01:26:35.696Z,12.50
2022-11-17T01:29:03.833Z,11.80
2022-11-17T01:31:32.951Z,13.63
2022-11-17T01:34:00.068Z,12.75
2022-11-17T01:36:51.517Z,12.18
2022-11-17T01:39:18.603Z,13.18
2022-11-17T01:41:45.389Z,12.55
2022-11-17T01:44:48.304Z,13.45
2022-11-17T01:47:20.035Z,13.10
2022-11-17T01:49:48.848Z,13.32
2022-11-17T01:52:16.241Z,12.48
2022-11-17T01:54:46.975Z,10.95
2022-11-17T01:57:20.253Z,14.68
2022-11-17T01:59:53.088Z,12.95
2022-11-17T02:02:20.829Z,13.40
2022-11-17T02:05:15.815Z,13.82
2022-11-17T02:07:44.930Z,13.25
2022-11-17T02:10:11.971Z,13.50
2022-11-17T02:12:38.873Z,13.18
2022-11-17T02:15:06.163Z,13.82
2022-11-17T02:17:37.581Z,13.15
2022-11-17T02:20:07.459Z,14.20
2022-11-17T02:22:48.952Z,16.48
2022-11-17T02:25:40.072Z,12.63
2022-11-17T02:28:18.882Z,14.00
2022-11-17T02:31:17.786Z,13.85
2022-11-17T02:34:02.617Z,14.38
2022-11-17T02:36:29.350Z,14.70
2022-11-17T02:39:20.113Z,14.35
2022-11-17T02:41:58.696Z,14.32
2022-11-17T02:44:48.095Z,14.85
2022-11-17T02:47:23.825Z,14.52
2022-11-17T02:50:10.672Z,13.60
2022-11-17T02:52:37.707Z,14.43
2022-11-17T02:55:07.850Z,13.70
2022-11-17T02:57:39.542Z,14.15
2022-11-17T03:00:15.128Z,14.82
2022-11-17T03:03:06.148Z,13.80
2022-11-17T03:05:47.959Z,14.73
2022-11-17T03:08:50.026Z,14.50
2022-11-17T03:11:19.161Z,14.68
2022-11-17T03:13:51.820Z,14.00
2022-11-17T03:16:34.794Z,13.82
2022-11-17T03:19:10.580Z,14.38
2022-11-17T03:21:37.293Z,13.15
2022-11-17T03:24:16.968Z,14.07
2022-11-17T03:26:50.093Z,13.25
2022-11-17T03:29:20.479Z,14.88
2022-11-17T03:31:49.087Z,14.18
2022-11-17T03:34:20.581Z,16.83
2022-11-17T03:36:51.972Z,14.18
2022-11-17T03:39:47.834Z,14.43
2022-11-17T03:42:22.893Z,14.07
2022-11-17T03:45:02.435Z,15.43
2022-11-17T03:47:33.457Z,15.25
2022-11-17T03:50:13.562Z,14.18
2022-11-17T03:52:41.601Z,15.50
2022-11-17T03:55:09.551Z,13.23
2022-11-17T03:58:01.192Z,13.55
2022-11-17T04:00:28.232Z,14.55
2022-11-17T04:02:58.716Z,13.85
2022-11-17T04:05:26.136Z,14.95
2022-11-17T04:07:53.150Z,14.43
2022-11-17T04:10:25.834Z,15.40
2022-11-17T04:13:12.848Z,13.85
2022-11-17T04:15:59.085Z,14.55
2022-11-17T04:20:55.930Z,14.23
2022-11-17T04:23:24.034Z,13.55
2022-11-17T04:26:12.371Z,13.65
2022-11-17T04:28:48.458Z,13.20
2022-11-17T04:31:20.971Z,14.75
2022-11-17T04:33:50.291Z,14.27
2022-11-17T04:36:24.469Z,14.82
2022-11-17T04:38:54.791Z,14.18
2022-11-17T04:41:42.255Z,15.75
2022-11-17T04:44:11.176Z,14.52
2022-11-17T04:46:39.284Z,14.38
2022-11-17T04:49:07.077Z,15.00
2022-11-17T04:51:35.137Z,14.48
2022-11-17T04:54:02.435Z,15.45
2022-11-17T04:56:29.580Z,16.50
2022-11-17T04:58:56.710Z,15.30
2022-11-17T05:01:25.083Z,17.50
2022-11-17T05:03:52.938Z,17.08
2022-11-17T05:06:25.354Z,19.48
2022-11-17T05:08:56.640Z,20.45
2022-11-17T05:11:46.992Z,18.00
2022-11-17T05:14:15.908Z,15.45
2022-11-17T05:17:08.403Z,17.45
2022-11-17T05:19:36.046Z,17.00
2022-11-17T05:22:03.227Z,17.13
2022-11-17T05:24:29.972Z,17.60
2022-11-17T05:26:56.831Z,18.48
2022-11-17T05:29:24.020Z,18.23
2022-11-17T05:31:51.093Z,16.73
2022-11-17T05:34:18.593Z,17.10
2022-11-17T05:36:46.060Z,19.00
2022-11-17T05:39:14.062Z,17.88
2022-11-17T05:41:40.936Z,15.18
2022-11-17T05:44:07.721Z,17.52
2022-11-17T05:46:34.456Z,18.30
2022-11-17T05:49:01.429Z,18.35
2022-11-17T05:51:28.279Z,16.50
2022-11-17T05:53:55.104Z,17.15
2022-11-17T05:56:46.672Z,16.20
2022-11-17T05:59:24.796Z,16.85
2022-11-17T06:02:00.641Z,16.88
2022-11-17T06:04:28.563Z,18.15
2022-11-17T06:06:59.477Z,18.13
2022-11-17T06:09:29.912Z,16.20
2022-11-17T06:12:00.966Z,17.95
2022-11-17T06:14:31.034Z,16.38
2022-11-17T06:17:03.767Z,17.42
2022-11-17T06:19:37.286Z,19.85
2022-11-17T06:22:12.052Z,21.70
2022-11-17T06:24:41.374Z,21.88
2022-11-17T06:27:08.344Z,19.45
2022-11-17T06:29:39.416Z,18.55
2022-11-17T06:32:09.752Z,15.18
2022-11-17T06:34:37.545Z,18.65
2022-11-17T06:37:04.332Z,15.63
2022-11-17T06:39:31.163Z,15.30
2022-11-17T06:41:57.949Z,15.77
2022-11-17T06:44:24.698Z,15.82
2022-11-17T06:46:51.450Z,16.30
2022-11-17T06:49:18.267Z,17.13
2022-11-17T06:51:45.751Z,16.38
2022-11-17T06:54:14.600Z,16.10
2022-11-17T06:56:41.968Z,18.60
2022-11-17T06:59:08.683Z,19.15
2022-11-17T07:01:36.826Z,15.80
2022-11-17T07:04:03.753Z,18.15
2022-11-17T07:06:30.556Z,18.23
2022-11-17T07:08:57.333Z,18.17
2022-11-17T07:11:24.076Z,17.42
2022-11-17T07:13:50.786Z,15.68
2022-11-17T07:16:23.468Z,17.00
2022-11-17T07:18:52.270Z,15.13
2022-11-17T07:21:19.211Z,17.00
2022-11-17T07:23:47.086Z,16.52
2022-11-17T07:26:14.348Z,17.75
2022-11-17T07:28:41.173Z,16.65
2022-11-17T07:31:09.174Z,16.85
2022-11-17T07:33:36.619Z,18.85
2022-11-17T07:36:05.676Z,17.70
2022-11-17T07:38:34.780Z,16.77
2022-11-17T07:41:02.550Z,18.48
2022-11-17T07:43:29.492Z,17.40
2022-11-17T07:45:56.657Z,17.42
2022-11-17T07:48:23.455Z,16.90
2022-11-17T07:50:50.539Z,17.83
2022-11-17T07:53:17.304Z,18.50
2022-11-17T07:55:44.096Z,19.02
2022-11-17T07:58:10.894Z,19.60
2022-11-17T08:00:37.841Z,17.17
2022-11-17T08:03:05.042Z,17.45
2022-11-17T08:05:41.552Z,17.85
2022-11-17T08:08:10.021Z,16.45
2022-11-17T08:10:37.034Z,16.05
2022-11-17T08:13:04.543Z,16.38
2022-11-17T08:15:31.569Z,17.77
2022-11-17T08:18:00.090Z,17.48
2022-11-17T08:20:29.218Z,17.42
2022-11-17T08:22:56.664Z,18.08
2022-11-17T08:25:26.000Z,18.00
2022-11-17T08:27:57.893Z,19.20
2022-11-17T08:30:26.120Z,16.55
2022-11-17T08:32:53.976Z,17.90
2022-11-17T08:35:23.269Z,17.52
2022-11-17T08:37:50.164Z,19.00
2022-11-17T08:40:18.231Z,20.50
2022-11-17T08:42:45.618Z,17.65
2022-11-17T08:45:13.364Z,18.20
2022-11-17T08:47:40.339Z,17.88
2022-11-17T08:50:07.582Z,16.35
2022-11-17T08:52:34.396Z,16.95
2022-11-17T08:55:02.134Z,16.92
2022-11-17T08:57:33.029Z,17.55
2022-11-17T08:59:59.894Z,16.75
2022-11-17T09:02:26.771Z,17.30
2022-11-17T09:04:53.634Z,16.38
2022-11-17T09:07:20.461Z,15.27
2022-11-17T09:09:48.501Z,15.82
2022-11-17T09:12:15.972Z,16.85
2022-11-17T09:14:42.976Z,16.17
2022-11-17T09:17:09.943Z,17.58
2022-11-17T09:19:36.715Z,16.15
2022-11-17T09:22:03.620Z,15.73
2022-11-17T09:24:30.346Z,15.32
2022-11-17T09:26:57.626Z,16.42
2022-11-17T09:29:24.489Z,16.02
2022-11-17T09:31:51.318Z,16.70
2022-11-17T09:34:18.285Z,16.20
2022-11-17T09:36:45.110Z,15.60
2022-11-17T09:39:11.875Z,16.30
2022-11-17T09:41:46.785Z,16.42
2022-11-17T09:44:19.297Z,14.63
2022-11-17T09:47:04.362Z,17.25
2022-11-17T09:49:40.191Z,14.90
2022-11-17T09:52:35.023Z,17.08
2022-11-17T09:55:27.271Z,16.58
2022-11-17T09:58:31.327Z,17.05
2022-11-17T10:00:58.579Z,16.10
2022-11-17T10:03:30.881Z,16.67
2022-11-17T10:05:59.521Z,17.35
2022-11-17T10:08:38.124Z,16.45
2022-11-17T10:11:30.388Z,16.67
2022-11-17T10:13:58.310Z,17.25
2022-11-17T10:16:25.215Z,18.33
2022-11-17T10:18:51.988Z,17.60
2022-11-17T10:21:18.843Z,16.63
2022-11-17T10:23:56.544Z,18.25
2022-11-17T10:26:23.273Z,17.02
2022-11-17T10:29:08.798Z,16.88
2022-11-17T10:31:44.779Z,17.10
2022-11-17T10:34:29.822Z,16.40
2022-11-17T10:37:05.395Z,17.98
2022-11-17T10:39:33.899Z,17.58
2022-11-17T10:42:12.879Z,17.50
2022-11-17T10:44:42.951Z,19.20
2022-11-17T10:47:52.120Z,17.15
2022-11-17T10:50:25.068Z,18.98
2022-11-17T10:52:53.916Z,19.65
2022-11-17T10:55:33.915Z,20.58
2022-11-17T10:58:23.326Z,19.60
2022-11-17T11:00:58.895Z,18.13
2022-11-17T11:03:32.174Z,16.48
2022-11-17T11:06:05.410Z,16.73
2022-11-17T11:08:55.338Z,16.88
2022-11-17T11:11:41.195Z,16.08
2022-11-17T11:14:36.779Z,16.23
2022-11-17T11:17:12.234Z,15.43
2022-11-17T11:19:43.300Z,15.57
2022-11-17T11:22:20.946Z,15.77
2022-11-17T11:24:57.993Z,15.50
2022-11-17T11:27:57.369Z,15.55
2022-11-17T11:30:24.247Z,16.10
2022-11-17T11:33:11.942Z,16.17
2022-11-17T11:35:58.026Z,17.02
2022-11-17T11:42:43.181Z,16.88
2022-11-17T11:45:37.992Z,15.43
2022-11-17T11:48:21.848Z,16.33
2022-11-17T11:50:55.259Z,16.73
2022-11-17T11:53:28.763Z,16.83
2022-11-17T11:56:08.643Z,15.18
2022-11-17T11:58:40.834Z,16.20
2022-11-17T12:01:09.589Z,15.27
2022-11-17T12:03:56.873Z,14.63
2022-11-17T12:06:43.590Z,14.23
2022-11-17T12:09:28.832Z,15.02
2022-11-17T12:12:03.154Z,14.95
2022-11-17T12:14:36.449Z,14.95
2022-11-17T12:17:18.621Z,14.27
2022-11-17T12:19:58.879Z,16.98
2022-11-17T12:22:32.263Z,15.30
2022-11-17T12:25:28.334Z,14.18
2022-11-17T12:27:55.105Z,15.07
2022-11-17T12:30:33.799Z,15.55
2022-11-17T12:33:04.020Z,15.65
2022-11-17T12:35:39.113Z,15.30
2022-11-17T12:38:17.714Z,16.10
2022-11-17T12:40:46.838Z,14.80
2022-11-17T12:43:16.422Z,15.77
2022-11-17T12:45:58.639Z,15.57
2022-11-17T12:48:35.924Z,14.68
2022-11-17T12:51:11.901Z,14.35
2022-11-17T12:53:50.547Z,13.43
2022-11-17T12:56:17.269Z,14.50
2022-11-17T12:59:19.397Z,14.82
2022-11-17T13:01:49.378Z,14.52
2022-11-17T13:04:21.485Z,13.48
2022-11-17T13:07:16.845Z,14.95
2022-11-17T13:09:43.637Z,13.35
2022-11-17T13:12:11.348Z,14.77
2022-11-17T13:14:53.721Z,14.85
2022-11-17T13:17:29.528Z,15.20
2022-11-17T13:20:29.911Z,14.38
2022-11-17T13:23:18.270Z,14.07
2022-11-17T13:25:45.079Z,15.32
2022-11-17T13:28:29.560Z,16.35
2022-11-17T13:30:56.911Z,15.75
2022-11-17T13:33:24.979Z,15.48
2022-11-17T13:36:17.814Z,14.52
2022-11-17T13:38:51.871Z,13.77
2022-11-17T13:41:21.909Z,13.57
2022-11-17T13:43:50.457Z,13.93
2022-11-17T13:46:17.889Z,15.27
2022-11-17T13:48:46.512Z,14.23
2022-11-17T13:51:32.689Z,13.98
2022-11-17T13:54:11.683Z,13.00
2022-11-17T13:57:02.048Z,13.32
2022-11-17T13:59:38.478Z,14.48
2022-11-17T14:02:19.064Z,13.85
2022-11-17T14:05:10.953Z,13.73
2022-11-17T14:07:39.563Z,15.02
2022-11-17T14:10:15.205Z,14.15
2022-11-17T14:12:42.045Z,13.63
2022-11-17T14:15:22.825Z,14.18
2022-11-17T14:17:55.126Z,13.50
2022-11-17T14:20:25.033Z,13.77
2022-11-17T14:23:01.300Z,13.20
2022-11-17T14:25:29.538Z,14.85
2022-11-17T14:27:56.386Z,13.23
2022-11-17T14:30:23.295Z,13.70
2022-11-17T14:32:50.110Z,14.18
2022-11-17T14:37:44.837Z,13.45
2022-11-17T14:40:18.189Z,13.73
2022-11-17T14:42:45.035Z,13.15
2022-11-17T14:45:16.877Z,13.45
2022-11-17T14:47:44.250Z,14.05
2022-11-17T14:50:16.220Z,13.88
2022-11-17T14:52:44.560Z,15.52
2022-11-17T14:55:13.222Z,13.77
2022-11-17T14:57:41.213Z,12.70
2022-11-17T15:00:13.443Z,13.43
2022-11-17T15:02:43.046Z,13.32
2022-11-17T15:05:10.939Z,13.77
2022-11-17T15:07:38.292Z,15.25
2022-11-17T15:10:06.742Z,14.43
2022-11-17T15:12:33.670Z,15.32
2022-11-17T15:15:00.483Z,14.93
2022-11-17T15:17:28.314Z,15.82
2022-11-17T15:19:55.357Z,15.38
2022-11-17T15:22:22.484Z,14.23
2022-11-17T15:24:49.246Z,15.00
2022-11-17T15:27:16.122Z,14.05
2022-11-17T15:29:42.933Z,14.15
2022-11-17T15:32:10.632Z,14.45
2022-11-17T15:34:37.420Z,16.35
2022-11-17T15:37:05.552Z,15.73
2022-11-17T15:39:32.295Z,14.75
2022-11-17T15:41:59.087Z,15.95
2022-11-17T15:44:26.133Z,16.10
2022-11-17T15:46:52.871Z,14.45
2022-11-17T15:49:19.807Z,14.93
2022-11-17T15:51:46.629Z,15.00
2022-11-17T15:54:18.479Z,15.32
2022-11-17T15:56:47.317Z,14.10
2022-11-17T15:59:14.619Z,14.13
2022-11-17T16:01:41.826Z,14.23
2022-11-17T16:04:11.080Z,13.10
2022-11-17T16:06:42.640Z,14.15
2022-11-17T16:09:10.459Z,14.48
2022-11-17T16:11:37.660Z,14.18
2022-11-17T16:14:05.243Z,14.43
2022-11-17T16:16:37.301Z,13.93
2022-11-17T16:19:04.676Z,13.68
2022-11-17T16:21:31.475Z,14.48
2022-11-17T16:24:00.589Z,13.68
2022-11-17T16:26:28.414Z,14.80
2022-11-17T16:29:00.345Z,13.30
2022-11-17T16:31:30.150Z,13.70
2022-11-17T16:34:01.437Z,13.50
2022-11-17T16:36:35.957Z,13.77
2022-11-17T16:39:04.904Z,14.90
2022-11-17T16:41:34.170Z,13.40
2022-11-17T16:44:01.881Z,13.32
2022-11-17T16:46:30.706Z,12.73
2022-11-17T16:49:01.671Z,12.93
2022-11-17T16:51:28.654Z,13.77
2022-11-17T16:53:58.111Z,12.30
2022-11-17T16:56:25.010Z,13.55
2022-11-17T16:58:52.607Z,12.43
2022-11-17T17:01:27.346Z,11.98
2022-11-17T17:04:12.552Z,13.13
2022-11-17T17:06:41.733Z,12.25
2022-11-17T17:09:09.537Z,13.07
2022-11-17T17:11:37.280Z,11.73
2022-11-17T17:14:08.241Z,11.55
2022-11-17T17:16:36.996Z,11.82
2022-11-17T17:19:05.525Z,13.63
2022-11-17T17:21:33.589Z,12.90
2022-11-17T17:24:00.867Z,12.85
2022-11-17T17:26:29.868Z,13.13
2022-11-17T17:28:58.213Z,11.52
2022-11-17T17:31:29.084Z,12.07
2022-11-17T17:33:56.231Z,12.05
2022-11-17T17:36:26.685Z,11.70
2022-11-17T17:38:59.059Z,11.98
2022-11-17T17:41:27.747Z,12.35
2022-11-17T17:44:05.712Z,10.98
2022-11-17T17:46:36.639Z,11.50
2022-11-17T17:49:03.814Z,12.25
2022-11-17T17:51:30.990Z,12.45
2022-11-17T17:54:01.066Z,11.18
2022-11-17T17:56:28.371Z,11.50
2022-11-17T17:58:55.906Z,12.23
2022-11-17T18:01:25.730Z,10.80
2022-11-17T18:03:54.806Z,12.15
2022-11-17T18:06:22.604Z,11.25
2022-11-17T18:08:49.677Z,11.98
2022-11-17T18:11:20.670Z,12.43
2022-11-17T18:13:49.534Z,11.50
2022-11-17T18:16:25.513Z,12.25
2022-11-17T18:18:57.848Z,13.75
2022-11-17T18:21:24.812Z,12.35
2022-11-17T18:23:53.506Z,13.60
2022-11-17T18:26:41.276Z,13.05
2022-11-17T18:29:18.189Z,12.68
2022-11-17T18:31:49.439Z,11.13
2022-11-17T18:34:23.731Z,13.60
2022-11-17T18:36:52.009Z,12.63
2022-11-17T18:39:19.439Z,13.02
2022-11-17T18:41:47.027Z,11.85
2022-11-17T18:44:16.800Z,12.73
2022-11-17T18:46:43.635Z,11.88
2022-11-17T18:49:10.526Z,11.00
2022-11-17T18:51:37.406Z,11.00
2022-11-17T18:54:04.713Z,11.18
2022-11-17T18:56:36.227Z,11.38
2022-11-17T18:59:03.956Z,11.57
2022-11-17T19:01:30.894Z,10.95
2022-11-17T19:04:00.778Z,10.90
2022-11-17T19:06:28.011Z,10.65
2022-11-17T19:08:54.994Z,10.85
2022-11-17T19:11:22.826Z,10.77
2022-11-17T19:13:50.027Z,10.63
2022-11-17T19:16:21.281Z,10.82
2022-11-17T19:18:50.265Z,11.45
2022-11-17T19:21:20.176Z,11.50
2022-11-17T19:23:51.871Z,9.23
2022-11-17T19:26:24.514Z,10.85
2022-11-17T19:28:55.602Z,11.10
2022-11-17T19:31:22.657Z,10.25
2022-11-17T19:33:50.688Z,10.73
2022-11-17T19:36:23.381Z,11.48
2022-11-17T19:38:52.573Z,9.27
2022-11-17T19:41:23.982Z,11.20
2022-11-17T19:43:55.419Z,11.63
2022-11-17T19:46:23.903Z,10.95
2022-11-17T19:48:50.986Z,11.02
2022-11-17T19:51:24.925Z,12.00
2022-11-17T19:53:54.152Z,11.55
2022-11-17T19:56:22.827Z,11.52
2022-11-17T19:58:50.563Z,11.57
2022-11-17T20:01:24.933Z,10.60
2022-11-17T20:03:52.610Z,10.25
2022-11-17T20:06:21.558Z,10.63
2022-11-17T20:08:48.554Z,10.60
2022-11-17T20:11:17.842Z,10.35
2022-11-17T20:13:45.089Z,9.85
2022-11-17T20:16:14.823Z,10.18
2022-11-17T20:18:43.023Z,10.82
2022-11-17T20:21:11.299Z,9.93
2022-11-17T20:23:39.269Z,10.35
2022-11-17T20:26:18.272Z,10.73
2022-11-17T20:28:45.464Z,10.63
2022-11-17T20:31:19.411Z,10.45
2022-11-17T20:33:47.628Z,10.40
2022-11-17T20:36:19.794Z,10.95
2022-11-17T20:38:54.001Z,11.55
2022-11-17T20:41:23.287Z,11.27
2022-11-17T20:43:52.087Z,10.48
2022-11-17T20:46:19.808Z,10.05
2022-11-17T20:48:47.025Z,10.13
2022-11-17T20:51:16.827Z,9.77
2022-11-17T20:53:44.111Z,10.82
2022-11-17T20:56:14.629Z,8.65
2022-11-17T20:58:41.668Z,9.57
2022-11-17T21:01:14.543Z,10.02
2022-11-17T21:03:41.594Z,9.55
2022-11-17T21:06:08.616Z,9.80
2022-11-17T21:08:37.462Z,10.13
2022-11-17T21:11:07.438Z,9.43
2022-11-17T21:13:35.407Z,10.40
2022-11-17T21:16:06.180Z,11.05
2022-11-17T21:18:33.291Z,11.52
2022-11-17T21:21:00.459Z,10.07
2022-11-17T21:23:28.115Z,10.95
2022-11-17T21:25:55.080Z,10.40
2022-11-17T21:28:21.998Z,11.43
2022-11-17T21:30:48.737Z,10.75
2022-11-17T21:33:15.593Z,10.85
2022-11-17T21:35:42.341Z,9.57
2022-11-17T21:38:10.776Z,9.65
2022-11-17T21:40:37.751Z,9.77
2022-11-17T21:43:04.569Z,9.77
2022-11-17T21:45:33.319Z,9.70
2022-11-17T21:48:00.112Z,9.30
2022-11-17T21:50:27.102Z,9.23
2022-11-17T21:52:53.893Z,9.82
2022-11-17T21:55:20.689Z,9.38
2022-11-17T21:57:50.526Z,9.60
2022-11-17T22:00:17.949Z,9.63
2022-11-17T22:02:44.725Z,10.10
2022-11-17T22:05:11.584Z,9.73
2022-11-17T22:07:38.469Z,9.65
2022-11-17T22:10:06.030Z,8.85
2022-11-17T22:12:32.741Z,8.82
2022-11-17T22:14:59.443Z,9.55
2022-11-17T22:17:29.207Z,9.60
2022-11-17T22:19:55.965Z,8.25
2022-11-17T22:22:22.768Z,8.07
2022-11-17T22:24:50.050Z,9.00
2022-11-17T22:27:17.040Z,9.02
2022-11-17T22:29:43.782Z,8.23
2022-11-17T22:32:10.621Z,8.23
2022-11-17T22:34:37.396Z,8.32
2022-11-17T22:37:04.163Z,7.60
2022-11-17T22:39:34.141Z,8.38
2022-11-17T22:42:00.918Z,7.93
2022-11-17T22:44:27.710Z,7.63
2022-11-17T22:46:54.529Z,8.35
2022-11-17T22:49:21.315Z,8.20
2022-11-17T22:52:03.453Z,8.52
2022-11-17T22:54:33.765Z,7.88
2022-11-17T22:57:01.194Z,8.95
2022-11-17T22:59:29.347Z,8.27
2022-11-17T23:01:56.254Z,7.95
2022-11-17T23:04:23.241Z,8.57
2022-11-17T23:06:50.098Z,7.93
2022-11-17T23:09:17.230Z,8.27
2022-11-17T23:11:44.672Z,8.35
2022-11-17T23:14:13.799Z,7.90
2022-11-17T23:16:40.934Z,7.28
2022-11-17T23:19:11.177Z,7.68
2022-11-17T23:21:38.014Z,7.40
2022-11-17T23:24:05.098Z,8.13
2022-11-17T23:26:31.865Z,7.32
2022-11-17T23:28:58.927Z,8.02
2022-11-17T23:31:27.858Z,8.35
2022-11-17T23:33:54.688Z,8.15
2022-11-17T23:36:22.689Z,8.07
2022-11-17T23:38:50.429Z,8.23
2022-11-17T23:41:19.470Z,7.82
2022-11-17T23:43:46.735Z,7.68
2022-11-17T23:46:15.458Z,7.35
2022-11-17T23:48:43.168Z,7.32
2022-11-17T23:51:15.829Z,7.78
2022-11-17T23:53:43.086Z,7.40
2022-11-17T23:56:10.988Z,7.22
2022-11-17T23:58:38.189Z,7.90
